sensor_id;sensor_type;location;lat;lon;timestamp;P1;durP1;ratioP1;P2;durP2;ratioP2
15645;SDS011;7922;43.622;1.476;2023-01-16T00:01:36;8.63;;;3.20;;
15645;SDS011;7922;43.622;1.476;2023-01-16T00:04:01;9.40;;;3.37;;
15645;SDS011;7922;43.622;1.476;2023-01-16T00:06:26;6.43;;;2.60;;
15645;SDS011;7922;43.622;1.476;2023-01-16T00:08:51;6.93;;;3.23;;
15645;SDS011;7922;43.622;1.476;2023-01-16T00:11:17;7.03;;;2.73;;
15645;SDS011;7922;43.622;1.476;2023-01-16T00:13:42;5.97;;;2.80;;
15645;SDS011;7922;43.622;1.476;2023-01-16T00:16:07;10.70;;;2.80;;
15645;SDS011;7922;43.622;1.476;2023-01-16T00:18:33;8.87;;;3.23;;
15645;SDS011;7922;43.622;1.476;2023-01-16T00:20:58;9.37;;;3.00;;
15645;SDS011;7922;43.622;1.476;2023-01-16T00:23:24;4.07;;;2.67;;
15645;SDS011;7922;43.622;1.476;2023-01-16T00:25:50;4.63;;;2.80;;
15645;SDS011;7922;43.622;1.476;2023-01-16T00:28:15;6.20;;;2.87;;
15645;SDS011;7922;43.622;1.476;2023-01-16T00:30:41;6.53;;;3.43;;
15645;SDS011;7922;43.622;1.476;2023-01-16T00:33:06;8.80;;;3.70;;
15645;SDS011;7922;43.622;1.476;2023-01-16T00:35:32;9.20;;;3.87;;
15645;SDS011;7922;43.622;1.476;2023-01-16T00:37:57;7.13;;;3.93;;
15645;SDS011;7922;43.622;1.476;2023-01-16T00:40:23;8.87;;;4.13;;
15645;SDS011;7922;43.622;1.476;2023-01-16T00:42:49;7.30;;;3.93;;
15645;SDS011;7922;43.622;1.476;2023-01-16T00:45:15;8.37;;;3.33;;
15645;SDS011;7922;43.622;1.476;2023-01-16T00:47:40;7.03;;;3.90;;
15645;SDS011;7922;43.622;1.476;2023-01-16T00:50:06;9.20;;;4.00;;
15645;SDS011;7922;43.622;1.476;2023-01-16T00:52:32;5.90;;;3.20;;
15645;SDS011;7922;43.622;1.476;2023-01-16T00:54:57;5.37;;;3.43;;
15645;SDS011;7922;43.622;1.476;2023-01-16T00:57:23;8.67;;;3.27;;
15645;SDS011;7922;43.622;1.476;2023-01-16T00:59:48;7.87;;;3.23;;
15645;SDS011;7922;43.622;1.476;2023-01-16T01:02:13;4.90;;;2.73;;
15645;SDS011;7922;43.622;1.476;2023-01-16T01:04:39;4.97;;;3.13;;
15645;SDS011;7922;43.622;1.476;2023-01-16T01:07:04;7.90;;;2.90;;
15645;SDS011;7922;43.622;1.476;2023-01-16T01:09:29;4.93;;;2.60;;
15645;SDS011;7922;43.622;1.476;2023-01-16T01:11:58;4.63;;;2.70;;
15645;SDS011;7922;43.622;1.476;2023-01-16T01:14:24;4.33;;;2.60;;
15645;SDS011;7922;43.622;1.476;2023-01-16T01:16:50;6.03;;;2.80;;
15645;SDS011;7922;43.622;1.476;2023-01-16T01:19:15;5.53;;;2.60;;
15645;SDS011;7922;43.622;1.476;2023-01-16T01:21:41;4.70;;;2.80;;
15645;SDS011;7922;43.622;1.476;2023-01-16T01:24:06;5.20;;;3.07;;
15645;SDS011;7922;43.622;1.476;2023-01-16T01:26:32;4.90;;;2.40;;
15645;SDS011;7922;43.622;1.476;2023-01-16T01:28:57;6.97;;;2.53;;
15645;SDS011;7922;43.622;1.476;2023-01-16T01:31:23;6.03;;;2.97;;
15645;SDS011;7922;43.622;1.476;2023-01-16T01:33:48;5.73;;;3.00;;
15645;SDS011;7922;43.622;1.476;2023-01-16T01:36:13;5.60;;;2.53;;
15645;SDS011;7922;43.622;1.476;2023-01-16T01:38:38;4.57;;;2.30;;
15645;SDS011;7922;43.622;1.476;2023-01-16T01:41:04;6.23;;;2.83;;
15645;SDS011;7922;43.622;1.476;2023-01-16T01:46:07;5.33;;;2.60;;
15645;SDS011;7922;43.622;1.476;2023-01-16T01:49:00;7.00;;;2.77;;
15645;SDS011;7922;43.622;1.476;2023-01-16T01:51:34;5.40;;;2.60;;
15645;SDS011;7922;43.622;1.476;2023-01-16T01:54:05;5.97;;;2.40;;
15645;SDS011;7922;43.622;1.476;2023-01-16T01:56:36;6.07;;;3.20;;
15645;SDS011;7922;43.622;1.476;2023-01-16T01:59:07;5.33;;;2.50;;
15645;SDS011;7922;43.622;1.476;2023-01-16T02:01:39;3.60;;;2.10;;
15645;SDS011;7922;43.622;1.476;2023-01-16T02:04:05;3.97;;;2.43;;
15645;SDS011;7922;43.622;1.476;2023-01-16T02:06:40;4.07;;;2.27;;
15645;SDS011;7922;43.622;1.476;2023-01-16T02:09:09;4.83;;;2.03;;
15645;SDS011;7922;43.622;1.476;2023-01-16T02:11:37;2.43;;;2.07;;
15645;SDS011;7922;43.622;1.476;2023-01-16T02:14:12;5.17;;;2.00;;
15645;SDS011;7922;43.622;1.476;2023-01-16T02:16:40;3.23;;;2.07;;
15645;SDS011;7922;43.622;1.476;2023-01-16T02:19:07;4.23;;;2.13;;
15645;SDS011;7922;43.622;1.476;2023-01-16T02:27:13;5.03;;;2.00;;
15645;SDS011;7922;43.622;1.476;2023-01-16T02:33:26;2.97;;;1.80;;
15645;SDS011;7922;43.622;1.476;2023-01-16T02:47:09;4.13;;;2.20;;
15645;SDS011;7922;43.622;1.476;2023-01-16T02:49:39;4.13;;;2.10;;
15645;SDS011;7922;43.622;1.476;2023-01-16T02:52:21;5.20;;;2.30;;
15645;SDS011;7922;43.622;1.476;2023-01-16T02:54:55;3.93;;;2.20;;
15645;SDS011;7922;43.622;1.476;2023-01-16T02:57:27;5.60;;;2.27;;
15645;SDS011;7922;43.622;1.476;2023-01-16T02:59:58;2.17;;;1.97;;
15645;SDS011;7922;43.622;1.476;2023-01-16T03:02:24;4.17;;;2.00;;
15645;SDS011;7922;43.622;1.476;2023-01-16T03:04:49;2.67;;;1.90;;
15645;SDS011;7922;43.622;1.476;2023-01-16T03:12:33;3.73;;;1.97;;
15645;SDS011;7922;43.622;1.476;2023-01-16T03:15:14;3.10;;;2.00;;
15645;SDS011;7922;43.622;1.476;2023-01-16T03:20:47;2.60;;;1.80;;
15645;SDS011;7922;43.622;1.476;2023-01-16T03:26:09;2.97;;;1.80;;
15645;SDS011;7922;43.622;1.476;2023-01-16T03:39:26;3.50;;;1.33;;
15645;SDS011;7922;43.622;1.476;2023-01-16T03:41:58;2.67;;;1.40;;
15645;SDS011;7922;43.622;1.476;2023-01-16T03:44:29;2.90;;;1.57;;
15645;SDS011;7922;43.622;1.476;2023-01-16T03:46:59;2.00;;;1.27;;
15645;SDS011;7922;43.622;1.476;2023-01-16T03:49:40;3.33;;;1.40;;
15645;SDS011;7922;43.622;1.476;2023-01-16T03:52:11;4.37;;;1.60;;
15645;SDS011;7922;43.622;1.476;2023-01-16T03:54:42;3.27;;;1.50;;
15645;SDS011;7922;43.622;1.476;2023-01-16T03:57:14;3.20;;;1.40;;
15645;SDS011;7922;43.622;1.476;2023-01-16T03:59:46;2.07;;;1.60;;
15645;SDS011;7922;43.622;1.476;2023-01-16T04:05:00;3.90;;;1.50;;
15645;SDS011;7922;43.622;1.476;2023-01-16T04:10:17;3.70;;;1.60;;
15645;SDS011;7922;43.622;1.476;2023-01-16T04:12:50;2.97;;;1.47;;
15645;SDS011;7922;43.622;1.476;2023-01-16T04:15:20;2.03;;;1.53;;
15645;SDS011;7922;43.622;1.476;2023-01-16T04:17:47;4.53;;;1.30;;
15645;SDS011;7922;43.622;1.476;2023-01-16T04:20:12;2.77;;;1.30;;
15645;SDS011;7922;43.622;1.476;2023-01-16T04:22:38;2.20;;;1.40;;
15645;SDS011;7922;43.622;1.476;2023-01-16T04:25:05;2.70;;;1.50;;
15645;SDS011;7922;43.622;1.476;2023-01-16T04:27:33;2.57;;;1.70;;
15645;SDS011;7922;43.622;1.476;2023-01-16T04:29:58;2.43;;;1.50;;
15645;SDS011;7922;43.622;1.476;2023-01-16T04:32:24;3.20;;;1.70;;
15645;SDS011;7922;43.622;1.476;2023-01-16T04:34:49;1.67;;;1.40;;
15645;SDS011;7922;43.622;1.476;2023-01-16T04:37:15;2.80;;;1.70;;
15645;SDS011;7922;43.622;1.476;2023-01-16T04:39:42;1.67;;;1.57;;
15645;SDS011;7922;43.622;1.476;2023-01-16T04:42:07;1.63;;;1.30;;
15645;SDS011;7922;43.622;1.476;2023-01-16T04:44:33;2.73;;;1.43;;
15645;SDS011;7922;43.622;1.476;2023-01-16T04:46:59;3.17;;;1.57;;
15645;SDS011;7922;43.622;1.476;2023-01-16T04:49:24;1.83;;;1.40;;
15645;SDS011;7922;43.622;1.476;2023-01-16T04:51:50;1.60;;;1.50;;
15645;SDS011;7922;43.622;1.476;2023-01-16T04:54:16;2.13;;;1.60;;
15645;SDS011;7922;43.622;1.476;2023-01-16T04:56:42;2.47;;;1.47;;
15645;SDS011;7922;43.622;1.476;2023-01-16T04:59:08;2.90;;;1.30;;
15645;SDS011;7922;43.622;1.476;2023-01-16T05:01:34;6.13;;;2.60;;
15645;SDS011;7922;43.622;1.476;2023-01-16T05:03:59;1.47;;;1.37;;
15645;SDS011;7922;43.622;1.476;2023-01-16T05:06:24;3.20;;;1.63;;
15645;SDS011;7922;43.622;1.476;2023-01-16T05:08:49;1.83;;;1.50;;
15645;SDS011;7922;43.622;1.476;2023-01-16T05:11:15;1.70;;;1.60;;
15645;SDS011;7922;43.622;1.476;2023-01-16T05:13:40;1.73;;;1.60;;
15645;SDS011;7922;43.622;1.476;2023-01-16T05:16:05;5.33;;;2.17;;
15645;SDS011;7922;43.622;1.476;2023-01-16T05:18:31;2.33;;;1.60;;
15645;SDS011;7922;43.622;1.476;2023-01-16T05:20:56;1.73;;;1.30;;
15645;SDS011;7922;43.622;1.476;2023-01-16T05:23:21;1.30;;;0.93;;
15645;SDS011;7922;43.622;1.476;2023-01-16T05:25:47;2.50;;;1.33;;
15645;SDS011;7922;43.622;1.476;2023-01-16T05:28:12;1.37;;;1.10;;
15645;SDS011;7922;43.622;1.476;2023-01-16T05:30:37;2.67;;;1.90;;
15645;SDS011;7922;43.622;1.476;2023-01-16T05:33:03;1.33;;;1.23;;
15645;SDS011;7922;43.622;1.476;2023-01-16T05:35:28;0.93;;;0.83;;
15645;SDS011;7922;43.622;1.476;2023-01-16T05:37:53;2.00;;;1.00;;
15645;SDS011;7922;43.622;1.476;2023-01-16T05:40:18;0.97;;;0.90;;
15645;SDS011;7922;43.622;1.476;2023-01-16T05:42:44;1.10;;;1.00;;
15645;SDS011;7922;43.622;1.476;2023-01-16T05:45:10;1.53;;;0.80;;
15645;SDS011;7922;43.622;1.476;2023-01-16T05:47:35;1.97;;;1.00;;
15645;SDS011;7922;43.622;1.476;2023-01-16T05:50:01;1.13;;;0.70;;
15645;SDS011;7922;43.622;1.476;2023-01-16T05:52:26;1.10;;;0.90;;
15645;SDS011;7922;43.622;1.476;2023-01-16T05:54:52;1.40;;;0.90;;
15645;SDS011;7922;43.622;1.476;2023-01-16T05:57:18;1.67;;;0.90;;
15645;SDS011;7922;43.622;1.476;2023-01-16T05:59:47;1.10;;;0.90;;
15645;SDS011;7922;43.622;1.476;2023-01-16T06:02:15;2.00;;;0.80;;
15645;SDS011;7922;43.622;1.476;2023-01-16T06:04:41;1.73;;;0.97;;
15645;SDS011;7922;43.622;1.476;2023-01-16T06:07:06;0.90;;;0.90;;
15645;SDS011;7922;43.622;1.476;2023-01-16T06:09:32;0.87;;;0.87;;
15645;SDS011;7922;43.622;1.476;2023-01-16T06:11:57;0.80;;;0.80;;
15645;SDS011;7922;43.622;1.476;2023-01-16T06:14:22;1.63;;;0.90;;
15645;SDS011;7922;43.622;1.476;2023-01-16T06:16:47;1.23;;;0.83;;
15645;SDS011;7922;43.622;1.476;2023-01-16T06:19:13;1.47;;;0.80;;
15645;SDS011;7922;43.622;1.476;2023-01-16T06:21:38;1.00;;;0.80;;
15645;SDS011;7922;43.622;1.476;2023-01-16T06:24:03;1.60;;;0.80;;
15645;SDS011;7922;43.622;1.476;2023-01-16T06:26:29;1.27;;;0.90;;
15645;SDS011;7922;43.622;1.476;2023-01-16T06:28:54;1.23;;;1.10;;
15645;SDS011;7922;43.622;1.476;2023-01-16T06:31:19;1.20;;;1.00;;
15645;SDS011;7922;43.622;1.476;2023-01-16T06:33:45;2.10;;;0.93;;
15645;SDS011;7922;43.622;1.476;2023-01-16T06:36:10;1.40;;;0.83;;
15645;SDS011;7922;43.622;1.476;2023-01-16T06:38:35;0.93;;;0.83;;
15645;SDS011;7922;43.622;1.476;2023-01-16T06:41:00;1.27;;;0.80;;
15645;SDS011;7922;43.622;1.476;2023-01-16T06:43:26;0.80;;;0.80;;
15645;SDS011;7922;43.622;1.476;2023-01-16T06:45:52;0.77;;;0.77;;
15645;SDS011;7922;43.622;1.476;2023-01-16T06:48:18;2.20;;;0.90;;
15645;SDS011;7922;43.622;1.476;2023-01-16T06:50:44;0.90;;;0.90;;
15645;SDS011;7922;43.622;1.476;2023-01-16T06:53:10;1.10;;;1.00;;
15645;SDS011;7922;43.622;1.476;2023-01-16T06:55:36;1.10;;;1.00;;
15645;SDS011;7922;43.622;1.476;2023-01-16T06:58:01;1.60;;;1.43;;
15645;SDS011;7922;43.622;1.476;2023-01-16T07:00:26;1.00;;;0.90;;
15645;SDS011;7922;43.622;1.476;2023-01-16T07:02:52;1.60;;;0.93;;
15645;SDS011;7922;43.622;1.476;2023-01-16T07:05:18;0.90;;;0.90;;
15645;SDS011;7922;43.622;1.476;2023-01-16T07:07:44;1.33;;;0.80;;
15645;SDS011;7922;43.622;1.476;2023-01-16T07:10:09;2.20;;;0.70;;
15645;SDS011;7922;43.622;1.476;2023-01-16T07:12:35;1.07;;;0.70;;
15645;SDS011;7922;43.622;1.476;2023-01-16T07:15:00;0.80;;;0.80;;
15645;SDS011;7922;43.622;1.476;2023-01-16T07:17:25;1.00;;;0.80;;
15645;SDS011;7922;43.622;1.476;2023-01-16T07:19:51;2.50;;;0.80;;
15645;SDS011;7922;43.622;1.476;2023-01-16T07:22:16;0.80;;;0.80;;
15645;SDS011;7922;43.622;1.476;2023-01-16T07:24:43;0.83;;;0.83;;
15645;SDS011;7922;43.622;1.476;2023-01-16T07:27:08;1.00;;;0.70;;
15645;SDS011;7922;43.622;1.476;2023-01-16T07:29:33;0.80;;;0.80;;
15645;SDS011;7922;43.622;1.476;2023-01-16T07:31:59;0.80;;;0.80;;
15645;SDS011;7922;43.622;1.476;2023-01-16T07:34:26;0.70;;;0.70;;
15645;SDS011;7922;43.622;1.476;2023-01-16T07:36:52;1.60;;;0.80;;
15645;SDS011;7922;43.622;1.476;2023-01-16T07:39:17;1.87;;;0.73;;
15645;SDS011;7922;43.622;1.476;2023-01-16T07:41:42;1.10;;;0.90;;
15645;SDS011;7922;43.622;1.476;2023-01-16T07:44:08;0.77;;;0.77;;
15645;SDS011;7922;43.622;1.476;2023-01-16T07:46:34;2.97;;;0.80;;
15645;SDS011;7922;43.622;1.476;2023-01-16T07:48:59;0.67;;;0.60;;
15645;SDS011;7922;43.622;1.476;2023-01-16T07:51:25;0.83;;;0.60;;
15645;SDS011;7922;43.622;1.476;2023-01-16T07:53:50;1.60;;;0.60;;
15645;SDS011;7922;43.622;1.476;2023-01-16T07:56:15;0.57;;;0.57;;
15645;SDS011;7922;43.622;1.476;2023-01-16T07:58:41;1.13;;;0.77;;
15645;SDS011;7922;43.622;1.476;2023-01-16T08:01:07;0.50;;;0.50;;
15645;SDS011;7922;43.622;1.476;2023-01-16T08:03:32;0.67;;;0.60;;
15645;SDS011;7922;43.622;1.476;2023-01-16T08:05:58;0.80;;;0.80;;
15645;SDS011;7922;43.622;1.476;2023-01-16T08:08:23;0.97;;;0.80;;
15645;SDS011;7922;43.622;1.476;2023-01-16T08:10:52;1.70;;;0.60;;
15645;SDS011;7922;43.622;1.476;2023-01-16T08:13:18;0.83;;;0.80;;
15645;SDS011;7922;43.622;1.476;2023-01-16T08:15:43;1.77;;;0.70;;
15645;SDS011;7922;43.622;1.476;2023-01-16T08:18:08;0.80;;;0.70;;
15645;SDS011;7922;43.622;1.476;2023-01-16T08:20:34;1.07;;;0.80;;
15645;SDS011;7922;43.622;1.476;2023-01-16T08:22:59;0.83;;;0.83;;
15645;SDS011;7922;43.622;1.476;2023-01-16T08:25:24;2.20;;;0.67;;
15645;SDS011;7922;43.622;1.476;2023-01-16T08:27:50;0.60;;;0.60;;
15645;SDS011;7922;43.622;1.476;2023-01-16T08:30:15;0.93;;;0.63;;
15645;SDS011;7922;43.622;1.476;2023-01-16T08:32:41;0.60;;;0.60;;
15645;SDS011;7922;43.622;1.476;2023-01-16T08:35:07;0.40;;;0.40;;
15645;SDS011;7922;43.622;1.476;2023-01-16T08:37:33;0.80;;;0.60;;
15645;SDS011;7922;43.622;1.476;2023-01-16T08:39:58;0.57;;;0.57;;
15645;SDS011;7922;43.622;1.476;2023-01-16T08:42:24;0.57;;;0.57;;
15645;SDS011;7922;43.622;1.476;2023-01-16T08:44:49;0.60;;;0.60;;
15645;SDS011;7922;43.622;1.476;2023-01-16T08:47:18;0.97;;;0.80;;
15645;SDS011;7922;43.622;1.476;2023-01-16T08:49:47;0.70;;;0.67;;
15645;SDS011;7922;43.622;1.476;2023-01-16T08:52:13;0.73;;;0.60;;
15645;SDS011;7922;43.622;1.476;2023-01-16T08:54:39;1.20;;;0.80;;
15645;SDS011;7922;43.622;1.476;2023-01-16T08:57:04;0.77;;;0.70;;
15645;SDS011;7922;43.622;1.476;2023-01-16T08:59:29;0.80;;;0.73;;
15645;SDS011;7922;43.622;1.476;2023-01-16T09:01:54;1.03;;;0.70;;
15645;SDS011;7922;43.622;1.476;2023-01-16T09:04:20;0.80;;;0.60;;
15645;SDS011;7922;43.622;1.476;2023-01-16T09:06:45;0.80;;;0.70;;
15645;SDS011;7922;43.622;1.476;2023-01-16T09:09:10;0.83;;;0.80;;
15645;SDS011;7922;43.622;1.476;2023-01-16T09:11:35;2.23;;;1.10;;
15645;SDS011;7922;43.622;1.476;2023-01-16T09:14:01;0.90;;;0.80;;
15645;SDS011;7922;43.622;1.476;2023-01-16T09:16:26;0.80;;;0.70;;
15645;SDS011;7922;43.622;1.476;2023-01-16T09:18:51;0.70;;;0.70;;
15645;SDS011;7922;43.622;1.476;2023-01-16T09:21:17;2.10;;;0.83;;
15645;SDS011;7922;43.622;1.476;2023-01-16T09:23:43;1.60;;;0.90;;
15645;SDS011;7922;43.622;1.476;2023-01-16T09:26:08;0.93;;;0.70;;
15645;SDS011;7922;43.622;1.476;2023-01-16T09:28:33;1.53;;;0.67;;
15645;SDS011;7922;43.622;1.476;2023-01-16T09:30:59;1.70;;;0.80;;
15645;SDS011;7922;43.622;1.476;2023-01-16T09:33:24;1.63;;;0.77;;
15645;SDS011;7922;43.622;1.476;2023-01-16T09:35:49;1.57;;;0.80;;
15645;SDS011;7922;43.622;1.476;2023-01-16T09:38:15;0.80;;;0.80;;
15645;SDS011;7922;43.622;1.476;2023-01-16T09:40:43;0.67;;;0.63;;
15645;SDS011;7922;43.622;1.476;2023-01-16T09:48:49;1.03;;;0.80;;
15645;SDS011;7922;43.622;1.476;2023-01-16T09:51:23;0.73;;;0.70;;
15645;SDS011;7922;43.622;1.476;2023-01-16T09:56:42;0.80;;;0.80;;
15645;SDS011;7922;43.622;1.476;2023-01-16T09:59:31;0.87;;;0.70;;
15645;SDS011;7922;43.622;1.476;2023-01-16T10:04:32;1.20;;;0.90;;
15645;SDS011;7922;43.622;1.476;2023-01-16T10:12:33;1.80;;;0.90;;
15645;SDS011;7922;43.622;1.476;2023-01-16T10:23:07;1.87;;;1.00;;
15645;SDS011;7922;43.622;1.476;2023-01-16T10:25:46;3.07;;;1.40;;
15645;SDS011;7922;43.622;1.476;2023-01-16T10:28:24;2.50;;;1.23;;
15645;SDS011;7922;43.622;1.476;2023-01-16T10:30:58;1.60;;;1.20;;
15645;SDS011;7922;43.622;1.476;2023-01-16T10:36:20;4.30;;;1.60;;
15645;SDS011;7922;43.622;1.476;2023-01-16T10:38:51;6.20;;;1.40;;
15645;SDS011;7922;43.622;1.476;2023-01-16T10:41:20;3.17;;;1.60;;
15645;SDS011;7922;43.622;1.476;2023-01-16T10:43:51;4.63;;;1.37;;
15645;SDS011;7922;43.622;1.476;2023-01-16T10:46:17;3.83;;;1.67;;
15645;SDS011;7922;43.622;1.476;2023-01-16T10:48:45;5.77;;;1.60;;
15645;SDS011;7922;43.622;1.476;2023-01-16T10:51:10;3.47;;;1.50;;
15645;SDS011;7922;43.622;1.476;2023-01-16T10:53:35;5.60;;;1.30;;
15645;SDS011;7922;43.622;1.476;2023-01-16T10:56:02;6.20;;;1.40;;
15645;SDS011;7922;43.622;1.476;2023-01-16T11:01:14;4.70;;;1.73;;
15645;SDS011;7922;43.622;1.476;2023-01-16T11:03:43;4.57;;;1.20;;
15645;SDS011;7922;43.622;1.476;2023-01-16T11:06:16;3.77;;;1.20;;
15645;SDS011;7922;43.622;1.476;2023-01-16T11:08:46;4.87;;;1.60;;
15645;SDS011;7922;43.622;1.476;2023-01-16T11:11:33;2.50;;;1.27;;
15645;SDS011;7922;43.622;1.476;2023-01-16T11:14:10;4.00;;;1.37;;
15645;SDS011;7922;43.622;1.476;2023-01-16T11:16:39;4.17;;;1.40;;
15645;SDS011;7922;43.622;1.476;2023-01-16T11:19:24;2.37;;;1.30;;
15645;SDS011;7922;43.622;1.476;2023-01-16T11:21:55;5.23;;;1.27;;
15645;SDS011;7922;43.622;1.476;2023-01-16T11:24:31;3.77;;;1.70;;
15645;SDS011;7922;43.622;1.476;2023-01-16T11:26:58;3.57;;;1.60;;
15645;SDS011;7922;43.622;1.476;2023-01-16T11:29:25;4.37;;;1.33;;
15645;SDS011;7922;43.622;1.476;2023-01-16T11:31:54;2.00;;;1.13;;
15645;SDS011;7922;43.622;1.476;2023-01-16T11:34:23;4.47;;;1.40;;
15645;SDS011;7922;43.622;1.476;2023-01-16T11:36:50;5.40;;;1.83;;
15645;SDS011;7922;43.622;1.476;2023-01-16T11:39:19;4.73;;;1.50;;
15645;SDS011;7922;43.622;1.476;2023-01-16T11:41:48;5.60;;;1.50;;
15645;SDS011;7922;43.622;1.476;2023-01-16T11:46:45;5.20;;;1.80;;
15645;SDS011;7922;43.622;1.476;2023-01-16T11:49:18;7.13;;;1.97;;
15645;SDS011;7922;43.622;1.476;2023-01-16T11:51:51;7.53;;;1.80;;
15645;SDS011;7922;43.622;1.476;2023-01-16T11:54:18;8.23;;;2.07;;
15645;SDS011;7922;43.622;1.476;2023-01-16T12:02:09;7.27;;;1.87;;
15645;SDS011;7922;43.622;1.476;2023-01-16T12:07:41;5.47;;;1.20;;
15645;SDS011;7922;43.622;1.476;2023-01-16T12:10:37;5.27;;;1.57;;
15645;SDS011;7922;43.622;1.476;2023-01-16T12:13:10;7.37;;;1.93;;
15645;SDS011;7922;43.622;1.476;2023-01-16T12:15:38;5.33;;;2.07;;
15645;SDS011;7922;43.622;1.476;2023-01-16T12:18:23;7.40;;;2.47;;
15645;SDS011;7922;43.622;1.476;2023-01-16T12:21:07;7.33;;;1.90;;
15645;SDS011;7922;43.622;1.476;2023-01-16T12:26:31;5.37;;;1.80;;
15645;SDS011;7922;43.622;1.476;2023-01-16T12:34:45;4.27;;;1.60;;
15645;SDS011;7922;43.622;1.476;2023-01-16T12:47:30;5.80;;;2.70;;
15645;SDS011;7922;43.622;1.476;2023-01-16T12:58:31;2.73;;;1.30;;
15645;SDS011;7922;43.622;1.476;2023-01-16T13:03:27;5.73;;;1.83;;
15645;SDS011;7922;43.622;1.476;2023-01-16T13:06:01;3.37;;;1.67;;
15645;SDS011;7922;43.622;1.476;2023-01-16T13:11:26;3.70;;;1.23;;
15645;SDS011;7922;43.622;1.476;2023-01-16T13:13:57;3.93;;;1.20;;
15645;SDS011;7922;43.622;1.476;2023-01-16T13:16:27;4.50;;;1.20;;
15645;SDS011;7922;43.622;1.476;2023-01-16T13:18:58;2.50;;;1.20;;
15645;SDS011;7922;43.622;1.476;2023-01-16T13:21:28;4.47;;;1.23;;
15645;SDS011;7922;43.622;1.476;2023-01-16T13:24:05;4.80;;;1.33;;
15645;SDS011;7922;43.622;1.476;2023-01-16T13:26:37;3.67;;;1.10;;
15645;SDS011;7922;43.622;1.476;2023-01-16T13:31:45;4.33;;;1.20;;
15645;SDS011;7922;43.622;1.476;2023-01-16T13:34:15;1.97;;;1.30;;
15645;SDS011;7922;43.622;1.476;2023-01-16T13:42:33;3.90;;;1.40;;
15645;SDS011;7922;43.622;1.476;2023-01-16T13:45:05;4.13;;;1.50;;
15645;SDS011;7922;43.622;1.476;2023-01-16T13:47:40;2.50;;;1.53;;
15645;SDS011;7922;43.622;1.476;2023-01-16T13:53:02;4.77;;;1.47;;
15645;SDS011;7922;43.622;1.476;2023-01-16T13:55:33;3.80;;;1.70;;
15645;SDS011;7922;43.622;1.476;2023-01-16T13:58:17;4.37;;;1.73;;
15645;SDS011;7922;43.622;1.476;2023-01-16T14:00:45;7.40;;;1.90;;
15645;SDS011;7922;43.622;1.476;2023-01-16T14:03:23;6.07;;;2.23;;
15645;SDS011;7922;43.622;1.476;2023-01-16T14:11:22;8.60;;;2.10;;
15645;SDS011;7922;43.622;1.476;2023-01-16T14:14:16;4.10;;;1.50;;
15645;SDS011;7922;43.622;1.476;2023-01-16T14:16:59;4.30;;;1.60;;
15645;SDS011;7922;43.622;1.476;2023-01-16T14:19:26;2.83;;;1.33;;
15645;SDS011;7922;43.622;1.476;2023-01-16T14:22:02;3.73;;;1.40;;
15645;SDS011;7922;43.622;1.476;2023-01-16T14:24:28;5.23;;;1.70;;
15645;SDS011;7922;43.622;1.476;2023-01-16T14:27:04;3.97;;;1.53;;
15645;SDS011;7922;43.622;1.476;2023-01-16T14:29:35;5.37;;;1.57;;
15645;SDS011;7922;43.622;1.476;2023-01-16T14:34:40;4.30;;;1.50;;
15645;SDS011;7922;43.622;1.476;2023-01-16T14:37:27;6.93;;;1.60;;
15645;SDS011;7922;43.622;1.476;2023-01-16T14:47:28;6.27;;;1.90;;
15645;SDS011;7922;43.622;1.476;2023-01-16T14:55:05;4.30;;;1.63;;
15645;SDS011;7922;43.622;1.476;2023-01-16T14:57:33;3.73;;;1.70;;
15645;SDS011;7922;43.622;1.476;2023-01-16T15:00:04;2.47;;;1.20;;
15645;SDS011;7922;43.622;1.476;2023-01-16T15:02:34;4.53;;;1.20;;
15645;SDS011;7922;43.622;1.476;2023-01-16T15:10:35;6.17;;;1.70;;
15645;SDS011;7922;43.622;1.476;2023-01-16T15:13:19;4.03;;;1.80;;
15645;SDS011;7922;43.622;1.476;2023-01-16T15:16:04;6.50;;;2.20;;
15645;SDS011;7922;43.622;1.476;2023-01-16T15:18:32;6.67;;;2.13;;
15645;SDS011;7922;43.622;1.476;2023-01-16T15:21:13;5.97;;;1.77;;
15645;SDS011;7922;43.622;1.476;2023-01-16T15:23:39;4.40;;;1.80;;
15645;SDS011;7922;43.622;1.476;2023-01-16T15:31:18;3.57;;;1.83;;
15645;SDS011;7922;43.622;1.476;2023-01-16T15:34:18;3.23;;;1.83;;
15645;SDS011;7922;43.622;1.476;2023-01-16T15:36:46;3.57;;;1.47;;
15645;SDS011;7922;43.622;1.476;2023-01-16T15:42:09;2.83;;;2.20;;
15645;SDS011;7922;43.622;1.476;2023-01-16T15:44:41;3.40;;;1.20;;
15645;SDS011;7922;43.622;1.476;2023-01-16T15:53:14;2.60;;;1.20;;
15645;SDS011;7922;43.622;1.476;2023-01-16T15:55:42;3.17;;;1.40;;
15645;SDS011;7922;43.622;1.476;2023-01-16T15:58:11;3.30;;;1.30;;
15645;SDS011;7922;43.622;1.476;2023-01-16T16:00:42;3.13;;;1.20;;
15645;SDS011;7922;43.622;1.476;2023-01-16T16:05:36;2.13;;;1.40;;
15645;SDS011;7922;43.622;1.476;2023-01-16T16:08:03;3.73;;;1.50;;
15645;SDS011;7922;43.622;1.476;2023-01-16T16:10:29;1.70;;;1.40;;
15645;SDS011;7922;43.622;1.476;2023-01-16T16:12:58;3.67;;;1.60;;
15645;SDS011;7922;43.622;1.476;2023-01-16T16:15:24;2.00;;;1.47;;
15645;SDS011;7922;43.622;1.476;2023-01-16T16:17:59;2.43;;;1.50;;
15645;SDS011;7922;43.622;1.476;2023-01-16T16:20:29;2.77;;;1.43;;
15645;SDS011;7922;43.622;1.476;2023-01-16T16:25:36;3.73;;;1.80;;
15645;SDS011;7922;43.622;1.476;2023-01-16T16:28:13;3.13;;;1.90;;
15645;SDS011;7922;43.622;1.476;2023-01-16T16:30:45;3.50;;;2.00;;
15645;SDS011;7922;43.622;1.476;2023-01-16T16:33:18;2.63;;;1.60;;
15645;SDS011;7922;43.622;1.476;2023-01-16T16:36:02;5.43;;;1.97;;
15645;SDS011;7922;43.622;1.476;2023-01-16T16:43:57;7.17;;;2.33;;
15645;SDS011;7922;43.622;1.476;2023-01-16T16:48:58;3.77;;;1.60;;
15645;SDS011;7922;43.622;1.476;2023-01-16T16:51:39;3.03;;;1.30;;
15645;SDS011;7922;43.622;1.476;2023-01-16T16:54:12;5.30;;;1.80;;
15645;SDS011;7922;43.622;1.476;2023-01-16T16:56:39;5.77;;;2.10;;
15645;SDS011;7922;43.622;1.476;2023-01-16T16:59:17;5.20;;;1.93;;
15645;SDS011;7922;43.622;1.476;2023-01-16T17:01:47;2.77;;;1.63;;
15645;SDS011;7922;43.622;1.476;2023-01-16T17:04:13;5.83;;;2.10;;
15645;SDS011;7922;43.622;1.476;2023-01-16T17:06:39;3.63;;;2.00;;
15645;SDS011;7922;43.622;1.476;2023-01-16T17:09:05;6.40;;;1.97;;
15645;SDS011;7922;43.622;1.476;2023-01-16T17:11:30;3.73;;;1.60;;
15645;SDS011;7922;43.622;1.476;2023-01-16T17:13:55;5.97;;;2.53;;
15645;SDS011;7922;43.622;1.476;2023-01-16T17:16:22;6.07;;;2.30;;
15645;SDS011;7922;43.622;1.476;2023-01-16T17:18:56;2.77;;;2.00;;
15645;SDS011;7922;43.622;1.476;2023-01-16T17:21:23;4.37;;;2.10;;
15645;SDS011;7922;43.622;1.476;2023-01-16T17:23:48;3.33;;;2.17;;
15645;SDS011;7922;43.622;1.476;2023-01-16T17:26:14;3.83;;;2.13;;
15645;SDS011;7922;43.622;1.476;2023-01-16T17:28:39;3.53;;;2.00;;
15645;SDS011;7922;43.622;1.476;2023-01-16T17:31:05;2.77;;;1.97;;
15645;SDS011;7922;43.622;1.476;2023-01-16T17:33:31;5.77;;;2.20;;
15645;SDS011;7922;43.622;1.476;2023-01-16T17:35:57;2.90;;;1.73;;
15645;SDS011;7922;43.622;1.476;2023-01-16T17:38:22;3.20;;;2.37;;
15645;SDS011;7922;43.622;1.476;2023-01-16T17:40:47;3.43;;;2.33;;
15645;SDS011;7922;43.622;1.476;2023-01-16T17:43:17;4.67;;;2.70;;
15645;SDS011;7922;43.622;1.476;2023-01-16T17:45:43;4.40;;;2.00;;
15645;SDS011;7922;43.622;1.476;2023-01-16T17:48:10;4.07;;;2.57;;
15645;SDS011;7922;43.622;1.476;2023-01-16T17:50:35;4.93;;;2.47;;
15645;SDS011;7922;43.622;1.476;2023-01-16T17:53:01;2.70;;;1.50;;
15645;SDS011;7922;43.622;1.476;2023-01-16T17:55:26;2.80;;;1.60;;
15645;SDS011;7922;43.622;1.476;2023-01-16T17:57:51;5.77;;;1.97;;
15645;SDS011;7922;43.622;1.476;2023-01-16T18:00:17;4.43;;;1.50;;
15645;SDS011;7922;43.622;1.476;2023-01-16T18:02:44;2.37;;;1.50;;
15645;SDS011;7922;43.622;1.476;2023-01-16T18:05:10;3.60;;;1.80;;
15645;SDS011;7922;43.622;1.476;2023-01-16T18:07:36;6.50;;;2.83;;
15645;SDS011;7922;43.622;1.476;2023-01-16T18:10:01;4.10;;;1.93;;
15645;SDS011;7922;43.622;1.476;2023-01-16T18:12:26;4.07;;;2.43;;
15645;SDS011;7922;43.622;1.476;2023-01-16T18:14:52;5.43;;;2.00;;
15645;SDS011;7922;43.622;1.476;2023-01-16T18:17:17;4.47;;;1.70;;